Airfield :







YOU CAN JOIN US ON...

 
LOGIN :

Register | Disclaimer

   EN    FR    IT 

 









Legend :    VFR   Marginal VFR   IFR   Intensive IFR   Very Intensive IFR
Visi :
Ceiling :
>= 8 km
>= 3000ft
5 to 8 km
1000 to 3000 ft
1500m to 5 km
500 to 1000 ft
800 to 1500m
200 to 500 ft
< 800m
< 200 ft
Symbols :   Thunderstorms  Fog  Heavy snow  Heavy precipitations  Wind > 20 kt







- Airport Elevation : 103 ft
- IATA code : YQC


CYHA - Quaqtaq

CURRENT METAR :
  • 181300Z 30013KT 15SM DRSN FEW013 FEW230 M21/M26 A2988 RMK SC1CS1 SC TR CS TR SLP123

EXPIRED METARs :
  • 181200Z 30014KT 15SM DRSN FEW013 FEW230 M22/M26 A2986 RMK ST1CS1 ST TR CS TR SNW CVR/MED PACK SLP119

TAF TAF CYHA
Valid from the 18 at 14:00 until the 18 at 21:00 UTC


181339Z 1814/1821 30015KT P6SM FEW012
BECMG 1815/1817 31018G28KT
FM181800 31018G28KT P6SM SCT015
TEMPO 1818/1821 BKN015 RMK NXT FCST WILL BE ISSUED AT 191345Z
CZUL FIR / North America



MET'MAP, your aeronautical weather chart ! - Copyright ORBIFLY December 2007 - Disclaimer

ORBIFLY MET'MAP TEAM :

Programming & Development : Alexandra Zaïnal
Concept & Development : Baudouin d'Aumeries
Co-Development & Prog : Marc-Olivier Méhu
Technical & hardware support : Manuel Goepfert

Contact : metmap@orbifly.com




SOURCES & CREDITS :

   NOAA